Time;durP1;ratioP1;P1;durP2;ratioP2;P2;SDS_P1;SDS_P2;PMS_P1;PMS_P2;Temp;Humidity;BMP_temperature;BMP_pressure;BME280_temperature;BME280_humidity;BME280_pressure;Samples;Min_cycle;Max_cycle;Signal;HPM_P1;HPM_P2
2021/03/12 00:00:41;;;;;;;8.55;3.17;;;8.80;65.80;;;;;;5051776;28;20025;-70
2021/03/12 00:03:09;;;;;;;7.65;3.45;;;8.70;66.00;;;;;;5051759;28;20021;-70
2021/03/12 00:05:50;;;;;;;8.70;3.40;;;8.70;66.00;;;;;;5034004;28;20025;-70
2021/03/12 00:08:17;;;;;;;5.72;2.85;;;8.60;65.70;;;;;;5033586;28;20025;-70
2021/03/12 00:10:45;;;;;;;4.47;2.00;;;8.60;65.40;;;;;;5034168;28;20499;-70
2021/03/12 00:13:11;;;;;;;8.10;2.65;;;8.60;65.30;;;;;;5051443;28;20022;-68
2021/03/12 00:15:36;;;;;;;5.65;1.70;;;8.60;65.40;;;;;;5051721;28;20033;-70
2021/03/12 00:18:03;;;;;;;4.95;2.33;;;8.60;65.00;;;;;;5033812;28;20025;-71
2021/03/12 00:20:34;;;;;;;4.22;2.00;;;8.40;65.70;;;;;;5033569;28;20029;-71
2021/03/12 00:23:01;;;;;;;5.28;1.63;;;8.30;65.30;;;;;;5033680;28;20116;-70
2021/03/12 00:25:37;;;;;;;5.82;3.10;;;8.40;64.80;;;;;;5033972;28;20035;-70
2021/03/12 00:28:04;;;;;;;7.40;2.40;;;8.40;65.30;;;;;;5051310;28;20437;-70
2021/03/12 00:30:30;;;;;;;3.67;1.63;;;8.50;65.30;;;;;;5050231;28;20497;-70
2021/03/12 00:32:55;;;;;;;3.85;1.55;;;8.50;64.50;;;;;;5034042;28;20029;-70
2021/03/12 00:35:21;;;;;;;5.28;2.30;;;8.60;64.30;;;;;;5051771;28;20025;-71
2021/03/12 00:37:46;;;;;;;3.92;1.90;;;8.70;64.10;;;;;;5051286;28;20041;-70
2021/03/12 00:40:18;;;;;;;5.78;1.50;;;8.80;63.70;;;;;;5033310;28;20446;-71
2021/03/12 00:42:45;;;;;;;2.33;1.30;;;8.70;63.90;;;;;;5033721;28;20043;-72
2021/03/12 00:45:15;;;;;;;7.35;2.95;;;8.70;65.30;;;;;;5051420;28;20013;-71
2021/03/12 00:47:42;;;;;;;2.95;1.40;;;8.50;69.40;;;;;;5007521;28;20092;-70
2021/03/12 00:50:09;;;;;;;4.22;2.22;;;8.30;70.00;;;;;;5031390;28;20033;-71
2021/03/12 00:52:34;;;;;;;3.80;1.48;;;8.20;70.60;;;;;;5031541;28;20446;-71
2021/03/12 00:55:00;;;;;;;6.00;1.67;;;8.20;69.60;;;;;;5051846;28;20108;-71
2021/03/12 00:57:26;;;;;;;5.55;2.15;;;8.10;69.60;;;;;;5034198;28;20512;-71
2021/03/12 00:59:51;;;;;;;3.67;1.60;;;8.10;70.40;;;;;;5033597;28;20029;-71
2021/03/12 01:02:17;;;;;;;5.03;1.92;;;8.10;70.50;;;;;;5033789;28;20024;-71
2021/03/12 01:04:43;;;;;;;4.07;1.75;;;8.10;69.70;;;;;;5051660;28;20025;-72
2021/03/12 01:07:08;;;;;;;3.97;1.52;;;8.00;70.10;;;;;;5033473;28;20021;-71
2021/03/12 01:09:34;;;;;;;6.80;2.47;;;7.80;70.30;;;;;;5054701;28;20107;-71
2021/03/12 01:11:59;;;;;;;5.50;1.95;;;7.70;70.70;;;;;;5055572;28;20025;-71
2021/03/12 01:14:25;;;;;;;5.50;2.95;;;7.70;69.60;;;;;;5037523;28;20151;-71
2021/03/12 01:16:53;;;;;;;7.35;2.60;;;7.60;69.40;;;;;;5054970;28;20021;-71
2021/03/12 01:19:19;;;;;;;4.20;1.67;;;7.60;69.80;;;;;;5037554;28;20029;-71
2021/03/12 01:21:47;;;;;;;4.40;0.82;;;7.70;68.60;;;;;;5037275;28;20123;-70
2021/03/12 01:24:13;;;;;;;1.92;0.80;;;7.80;67.20;;;;;;5037440;28;20501;-68
2021/03/12 01:26:39;;;;;;;3.90;1.65;;;7.90;67.70;;;;;;5062751;28;20024;-70
2021/03/12 01:29:04;;;;;;;4.15;1.80;;;8.00;66.80;;;;;;5073998;28;20084;-71
2021/03/12 01:31:30;;;;;;;3.78;1.10;;;8.00;66.70;;;;;;5074160;28;20041;-69
2021/03/12 01:33:56;;;;;;;7.78;2.13;;;8.00;65.80;;;;;;5065359;28;20029;-71
2021/03/12 01:36:21;;;;;;;6.13;1.63;;;8.00;65.90;;;;;;5049789;28;20032;-69
2021/03/12 01:38:47;;;;;;;6.13;1.30;;;8.00;65.90;;;;;;5037193;28;20021;-69
2021/03/12 01:41:12;;;;;;;5.15;1.98;;;8.00;65.20;;;;;;5036907;28;20465;-70
2021/03/12 01:43:38;;;;;;;7.22;2.90;;;8.00;66.10;;;;;;5054538;28;20388;-70
2021/03/12 01:46:04;;;;;;;4.57;2.03;;;8.00;66.20;;;;;;5036600;28;20075;-70
2021/03/12 01:48:30;;;;;;;6.63;2.45;;;8.10;65.60;;;;;;5036620;28;20071;-70
2021/03/12 01:51:03;;;;;;;6.10;1.83;;;8.10;65.50;;;;;;5036796;28;20363;-70
2021/03/12 01:53:31;;;;;;;2.95;1.73;;;8.10;65.00;;;;;;5054380;28;20048;-70
2021/03/12 01:55:57;;;;;;;8.13;3.42;;;8.20;64.60;;;;;;5054467;28;20029;-71
2021/03/12 01:58:23;;;;;;;7.03;2.13;;;8.10;65.50;;;;;;5054543;28;20029;-72
2021/03/12 02:00:50;;;;;;;8.25;3.45;;;8.10;65.60;;;;;;5055052;28;20456;-70
2021/03/12 02:03:19;;;;;;;5.60;2.20;;;8.30;65.50;;;;;;5036355;28;20061;-71
2021/03/12 02:05:45;;;;;;;2.65;2.10;;;8.20;66.60;;;;;;5036132;28;20654;-71
2021/03/12 02:08:11;;;;;;;4.30;2.85;;;8.00;69.60;;;;;;5053843;28;20029;-71
2021/03/12 02:10:37;;;;;;;5.22;3.15;;;7.70;72.40;;;;;;5054027;28;20036;-70
2021/03/12 02:13:33;;;;;;;5.55;3.38;;;7.60;73.40;;;;;;5054267;28;20025;-70
2021/03/12 02:16:08;;;;;;;4.72;2.70;;;7.50;74.40;;;;;;5036092;28;20100;-70
2021/03/12 02:18:51;;;;;;;3.30;2.17;;;7.40;72.80;;;;;;5054182;28;20066;-70
2021/03/12 02:21:21;;;;;;;4.13;2.22;;;7.30;72.30;;;;;;5020138;28;20048;-70
2021/03/12 02:23:52;;;;;;;3.72;2.55;;;7.20;72.40;;;;;;5036192;28;20033;-71
2021/03/12 02:26:22;;;;;;;2.28;2.03;;;7.30;72.10;;;;;;5035835;28;20395;-71
2021/03/12 02:28:50;;;;;;;7.00;2.47;;;7.10;71.50;;;;;;5053757;28;20117;-71
2021/03/12 02:31:16;;;;;;;4.25;2.22;;;7.00;72.40;;;;;;5054296;28;20228;-70
2021/03/12 02:33:42;;;;;;;10.73;2.67;;;7.00;71.90;;;;;;5035957;28;20025;-70
2021/03/12 02:36:08;;;;;;;5.43;2.33;;;6.80;71.20;;;;;;5035663;28;20037;-70
2021/03/12 02:38:34;;;;;;;6.28;2.28;;;6.90;71.70;;;;;;5053481;28;20029;-70
2021/03/12 02:41:02;;;;;;;8.27;1.92;;;7.00;70.40;;;;;;5035473;28;20514;-71
2021/03/12 02:43:29;;;;;;;5.93;2.30;;;7.10;69.40;;;;;;5053391;28;20511;-70
2021/03/12 02:45:55;;;;;;;8.32;2.50;;;7.10;68.80;;;;;;5053253;28;20013;-71
2021/03/12 02:48:21;;;;;;;6.32;2.03;;;7.20;68.60;;;;;;5052343;28;20029;-70
2021/03/12 02:50:47;;;;;;;4.45;1.77;;;7.20;67.30;;;;;;5053317;28;20028;-70
2021/03/12 02:53:13;;;;;;;9.30;2.70;;;7.20;67.70;;;;;;5053241;28;20048;-70
2021/03/12 02:55:40;;;;;;;3.63;1.25;;;7.30;67.70;;;;;;5035135;28;20024;-71
2021/03/12 02:58:07;;;;;;;10.38;2.53;;;7.40;66.10;;;;;;5035207;28;20421;-70
2021/03/12 03:00:34;;;;;;;4.28;1.00;;;7.40;66.30;;;;;;5053010;28;20032;-70
2021/03/12 03:03:03;;;;;;;6.40;1.50;;;7.50;65.80;;;;;;5053428;28;20017;-70
2021/03/12 03:05:29;;;;;;;5.90;1.90;;;7.60;65.00;;;;;;5035086;28;20032;-69
2021/03/12 03:07:56;;;;;;;3.95;1.60;;;7.60;65.60;;;;;;5052854;28;20028;-69
2021/03/12 03:10:24;;;;;;;8.00;2.00;;;7.70;65.20;;;;;;5052689;28;20025;-71
2021/03/12 03:12:51;;;;;;;5.63;1.45;;;7.70;65.20;;;;;;5018931;28;20620;-70
2021/03/12 03:15:19;;;;;;;6.60;2.65;;;7.70;64.80;;;;;;5053058;28;20036;-68
2021/03/12 03:17:48;;;;;;;1.98;1.15;;;7.70;65.80;;;;;;5052785;28;20482;-70
2021/03/12 03:20:15;;;;;;;3.72;1.45;;;7.80;64.80;;;;;;5052601;28;20033;-70
2021/03/12 03:22:43;;;;;;;5.50;2.05;;;7.80;65.30;;;;;;5018292;28;20029;-70
2021/03/12 03:25:10;;;;;;;5.40;1.55;;;7.70;66.10;;;;;;5052468;28;20060;-70
2021/03/12 03:27:36;;;;;;;2.92;0.90;;;7.70;65.40;;;;;;5052399;28;20025;-70
2021/03/12 03:30:08;;;;;;;5.50;1.40;;;7.60;65.70;;;;;;5052486;28;20670;-70
2021/03/12 03:32:33;;;;;;;3.85;1.20;;;7.60;65.80;;;;;;5052465;28;20033;-70
2021/03/12 03:34:59;;;;;;;4.32;1.50;;;7.60;66.30;;;;;;5052493;28;20033;-71
2021/03/12 03:37:27;;;;;;;6.13;1.77;;;7.70;66.20;;;;;;5052409;28;20021;-71
2021/03/12 03:39:53;;;;;;;6.72;2.45;;;7.80;66.00;;;;;;5052735;28;20044;-72
2021/03/12 03:42:20;;;;;;;4.22;1.65;;;7.80;66.40;;;;;;5052728;28;20098;-69
2021/03/12 03:44:46;;;;;;;4.93;1.20;;;7.80;66.70;;;;;;5034483;28;20025;-71
2021/03/12 03:47:12;;;;;;;7.70;1.52;;;7.80;65.90;;;;;;5052043;28;20082;-71
2021/03/12 03:49:40;;;;;;;6.18;1.85;;;7.80;65.80;;;;;;5052245;28;20403;-70
2021/03/12 03:52:08;;;;;;;4.53;1.60;;;7.80;66.50;;;;;;5034649;28;20398;-68
2021/03/12 03:54:36;;;;;;;4.15;1.45;;;7.80;66.00;;;;;;5034119;28;20029;-72
2021/03/12 03:57:03;;;;;;;4.93;1.80;;;7.80;66.40;;;;;;5033958;28;20029;-71
2021/03/12 03:59:31;;;;;;;2.45;0.90;;;7.80;66.90;;;;;;5017849;28;20029;-70
2021/03/12 04:02:01;;;;;;;4.50;1.70;;;7.70;66.40;;;;;;5034561;28;20036;-71
2021/03/12 04:04:27;;;;;;;3.92;1.60;;;7.70;67.40;;;;;;5052563;28;20502;-71
2021/03/12 04:06:52;;;;;;;4.45;1.48;;;7.60;67.10;;;;;;5034166;28;20051;-71
2021/03/12 04:09:18;;;;;;;1.10;0.80;;;7.60;67.60;;;;;;5034932;28;20115;-71
2021/03/12 04:11:45;;;;;;;3.30;0.98;;;7.60;67.60;;;;;;5052440;28;20029;-71
2021/03/12 04:14:11;;;;;;;2.85;0.60;;;7.50;67.60;;;;;;5034241;28;20497;-71
2021/03/12 04:16:38;;;;;;;2.53;1.05;;;7.50;67.80;;;;;;5051891;28;20029;-71
2021/03/12 04:19:06;;;;;;;3.30;1.67;;;7.50;68.70;;;;;;5051817;28;20050;-71
2021/03/12 04:21:33;;;;;;;4.25;2.53;;;7.50;68.70;;;;;;5033707;28;20029;-71
2021/03/12 04:23:59;;;;;;;2.58;1.50;;;7.50;68.40;;;;;;5052020;28;20017;-71
2021/03/12 04:26:24;;;;;;;6.50;1.90;;;7.40;69.00;;;;;;5033929;28;20033;-71
2021/03/12 04:28:51;;;;;;;4.15;1.40;;;7.40;69.30;;;;;;5034337;28;20169;-70
2021/03/12 04:31:16;;;;;;;4.38;1.80;;;7.40;68.00;;;;;;5034691;28;20032;-71
2021/03/12 04:33:42;;;;;;;25.83;13.80;;;7.40;68.40;;;;;;5034452;28;20029;-71
2021/03/12 04:36:09;;;;;;;6.10;2.92;;;7.40;69.30;;;;;;5052335;28;20032;-70
2021/03/12 04:38:36;;;;;;;5.20;1.90;;;7.30;72.80;;;;;;5052049;28;20051;-72
2021/03/12 04:41:03;;;;;;;6.95;1.50;;;7.20;73.80;;;;;;5034374;28;20063;-71
2021/03/12 04:43:38;;;;;;;4.65;1.75;;;6.90;75.20;;;;;;5052297;28;20021;-70
2021/03/12 04:46:03;;;;;;;5.18;1.30;;;6.80;74.60;;;;;;5040757;28;20029;-75
2021/03/12 04:48:34;;;;;;;5.55;1.75;;;6.60;74.00;;;;;;5043109;28;20025;-72
2021/03/12 04:51:01;;;;;;;3.63;1.20;;;6.40;74.80;;;;;;5070234;28;20017;-72
2021/03/12 04:53:30;;;;;;;5.30;1.35;;;6.40;73.60;;;;;;5065638;28;20052;-72
2021/03/12 04:55:57;;;;;;;3.20;1.83;;;6.40;73.90;;;;;;5056041;28;20495;-73
2021/03/12 04:58:24;;;;;;;5.65;1.48;;;6.40;73.60;;;;;;5055337;28;20032;-72
2021/03/12 05:00:50;;;;;;;3.50;1.05;;;6.40;72.40;;;;;;5033136;28;20032;-72
2021/03/12 05:03:16;;;;;;;4.35;1.08;;;6.50;72.00;;;;;;5036181;28;20021;-72
2021/03/12 05:05:42;;;;;;;5.72;1.40;;;6.60;72.10;;;;;;5054587;28;20025;-73
2021/03/12 05:08:09;;;;;;;2.92;1.30;;;6.60;71.60;;;;;;5058499;28;20052;-73
2021/03/12 05:10:35;;;;;;;4.03;1.33;;;6.70;71.30;;;;;;5064282;28;20025;-71
2021/03/12 05:13:03;;;;;;;3.50;1.20;;;6.80;70.80;;;;;;5063561;28;20027;-72
2021/03/12 05:15:29;;;;;;;2.20;1.00;;;6.80;70.40;;;;;;5046653;28;20371;-73
2021/03/12 05:17:55;;;;;;;8.15;1.85;;;6.70;70.40;;;;;;5059056;28;20033;-73
2021/03/12 05:20:20;;;;;;;8.68;1.83;;;6.80;70.90;;;;;;5055893;28;20044;-71
2021/03/12 05:22:46;;;;;;;4.40;2.10;;;6.90;70.40;;;;;;5057383;28;20025;-73
2021/03/12 05:25:12;;;;;;;4.65;1.08;;;7.00;70.00;;;;;;5031391;28;20053;-74
2021/03/12 05:27:38;;;;;;;5.53;1.75;;;7.10;69.90;;;;;;5034716;28;20029;-72
2021/03/12 05:30:04;;;;;;;3.53;1.33;;;7.00;70.30;;;;;;5034393;28;20030;-73
2021/03/12 05:32:30;;;;;;;4.38;1.63;;;7.10;69.10;;;;;;5044328;28;20036;-74
2021/03/12 05:34:56;;;;;;;2.35;1.38;;;7.00;69.60;;;;;;5036681;28;20029;-73
2021/03/12 05:37:21;;;;;;;4.30;1.40;;;7.00;69.80;;;;;;5037842;28;20097;-75
2021/03/12 05:39:47;;;;;;;2.28;1.35;;;6.90;69.70;;;;;;5036869;28;20043;-73
2021/03/12 05:42:13;;;;;;;4.40;2.08;;;6.90;70.10;;;;;;5054098;28;20036;-74
2021/03/12 05:44:39;;;;;;;3.20;1.25;;;6.90;70.00;;;;;;5025401;28;20049;-75
2021/03/12 05:47:06;;;;;;;5.57;2.10;;;6.90;68.90;;;;;;5033555;28;20033;-73
2021/03/12 05:49:34;;;;;;;6.47;2.03;;;6.70;69.80;;;;;;5044792;28;20036;-74
2021/03/12 05:52:00;;;;;;;2.80;1.83;;;6.70;69.80;;;;;;5033827;28;20021;-74
2021/03/12 05:54:25;;;;;;;3.05;1.40;;;6.60;70.70;;;;;;5054303;28;20048;-73
2021/03/12 05:56:52;;;;;;;2.05;0.88;;;6.60;70.60;;;;;;5048462;28;20025;-72
2021/03/12 05:59:17;;;;;;;2.05;1.60;;;6.70;70.10;;;;;;5034314;28;20033;-74
2021/03/12 06:01:43;;;;;;;3.33;1.17;;;6.70;70.50;;;;;;5034690;28;20032;-74
2021/03/12 06:04:09;;;;;;;2.47;1.40;;;6.70;70.60;;;;;;5022191;28;20028;-73
2021/03/12 06:06:38;;;;;;;6.30;0.98;;;6.80;70.20;;;;;;5048850;28;20029;-73
2021/03/12 06:09:05;;;;;;;3.03;1.20;;;6.80;70.00;;;;;;5032697;28;20116;-73
2021/03/12 06:11:31;;;;;;;1.33;0.98;;;7.00;69.70;;;;;;5037016;28;20675;-74
2021/03/12 06:13:57;;;;;;;6.93;1.70;;;7.00;70.90;;;;;;5055648;28;20411;-75
2021/03/12 06:16:25;;;;;;;5.40;1.58;;;7.00;73.00;;;;;;5070168;28;20017;-75
2021/03/12 06:19:12;;;;;;;5.50;1.33;;;7.00;72.40;;;;;;5073689;28;20160;-75
2021/03/12 06:21:41;;;;;;;5.40;1.02;;;7.00;72.60;;;;;;5076939;28;20109;-75
2021/03/12 06:24:33;;;;;;;5.50;1.02;;;6.90;72.90;;;;;;5064851;28;20035;-71
2021/03/12 06:26:59;;;;;;;4.47;1.10;;;6.70;73.50;;;;;;5054123;28;20482;-72
2021/03/12 06:29:34;;;;;;;1.48;0.80;;;6.70;73.90;;;;;;5054024;28;20033;-73
2021/03/12 06:31:59;;;;;;;2.72;0.98;;;6.70;73.40;;;;;;5054385;28;20530;-71
2021/03/12 06:34:25;;;;;;;2.85;1.30;;;6.70;73.20;;;;;;5053727;28;20104;-71
2021/03/12 06:36:51;;;;;;;1.83;1.00;;;6.70;73.60;;;;;;5031618;28;20057;-71
2021/03/12 06:39:16;;;;;;;3.45;1.50;;;6.70;72.90;;;;;;5041833;28;20037;-73
2021/03/12 06:41:44;;;;;;;1.90;0.90;;;6.80;73.20;;;;;;5053503;28;20036;-73
2021/03/12 06:44:29;;;;;;;2.90;0.85;;;6.80;72.30;;;;;;5035373;28;20115;-72
2021/03/12 06:46:55;;;;;;;4.78;2.28;;;7.00;69.90;;;;;;5035218;28;20037;-72
2021/03/12 06:49:21;;;;;;;3.15;1.20;;;7.40;69.50;;;;;;5035317;28;20427;-72
2021/03/12 06:52:01;;;;;;;1.75;0.77;;;7.50;67.90;;;;;;5035691;28;20072;-72
2021/03/12 06:54:29;;;;;;;2.63;0.82;;;7.60;67.20;;;;;;5053126;28;20086;-73
2021/03/12 06:56:56;;;;;;;3.50;0.80;;;7.70;66.50;;;;;;5052883;28;20442;-72
2021/03/12 06:59:29;;;;;;;3.25;0.80;;;7.70;65.80;;;;;;5053014;28;20032;-74
2021/03/12 07:01:57;;;;;;;2.70;1.52;;;7.60;66.10;;;;;;5053134;28;20021;-73
2021/03/12 07:04:24;;;;;;;2.70;0.80;;;7.70;66.50;;;;;;5052876;28;20017;-72
2021/03/12 07:06:50;;;;;;;5.60;1.20;;;7.70;65.50;;;;;;5051972;28;20104;-72
2021/03/12 07:09:17;;;;;;;1.63;0.70;;;7.70;65.00;;;;;;5036174;28;20056;-70
2021/03/12 07:11:43;;;;;;;2.40;0.70;;;7.80;64.90;;;;;;5047575;28;20073;-69
2021/03/12 07:14:09;;;;;;;1.80;0.60;;;7.90;64.00;;;;;;5030554;28;20036;-71
2021/03/12 07:16:34;;;;;;;0.95;0.63;;;7.90;64.00;;;;;;5031212;28;20029;-69
2021/03/12 07:19:00;;;;;;;1.15;0.60;;;8.00;62.80;;;;;;5032644;28;20105;-71
2021/03/12 07:21:29;;;;;;;1.65;0.90;;;8.10;62.80;;;;;;5049157;28;20552;-69
2021/03/12 07:23:59;;;;;;;4.38;1.20;;;8.10;63.40;;;;;;5052503;28;20067;-70
2021/03/12 07:26:31;;;;;;;4.13;1.48;;;8.10;63.50;;;;;;5034174;28;20059;-70
2021/03/12 07:29:05;;;;;;;3.55;1.15;;;8.00;64.10;;;;;;5051007;28;20031;-69
2021/03/12 07:31:38;;;;;;;1.85;0.70;;;7.90;64.30;;;;;;5034730;28;20028;-69
2021/03/12 07:34:16;;;;;;;4.50;1.05;;;7.80;64.40;;;;;;5052540;28;20025;-69
2021/03/12 07:36:49;;;;;;;1.98;0.95;;;7.80;65.30;;;;;;5052288;28;20025;-71
2021/03/12 07:39:22;;;;;;;3.53;0.73;;;7.80;64.20;;;;;;5052249;28;20021;-70
2021/03/12 07:41:48;;;;;;;4.35;1.33;;;7.90;63.30;;;;;;5052738;28;20079;-70
2021/03/12 07:44:21;;;;;;;4.70;1.70;;;8.00;63.80;;;;;;5034763;28;20474;-71
2021/03/12 07:46:52;;;;;;;6.03;1.70;;;8.10;64.70;;;;;;5034097;28;20039;-70
2021/03/12 07:49:32;;;;;;;1.38;0.70;;;8.30;63.40;;;;;;5051944;28;20029;-71
2021/03/12 07:52:00;;;;;;;7.65;1.75;;;8.40;62.30;;;;;;5042314;28;20036;-71
2021/03/12 07:54:37;;;;;;;3.13;1.25;;;8.60;62.30;;;;;;5049923;28;20386;-71
2021/03/12 07:57:04;;;;;;;3.95;1.13;;;8.60;61.50;;;;;;5043778;28;20021;-71
2021/03/12 07:59:47;;;;;;;8.43;1.48;;;8.70;60.50;;;;;;5057988;28;20032;-71
2021/03/12 08:02:20;;;;;;;4.00;1.35;;;8.60;61.40;;;;;;5068357;28;20021;-70
2021/03/12 08:04:47;;;;;;;5.07;1.40;;;8.50;61.00;;;;;;5056186;28;20478;-72
2021/03/12 08:07:19;;;;;;;2.55;0.95;;;8.50;61.80;;;;;;5060229;28;20471;-71
2021/03/12 08:09:55;;;;;;;4.32;1.67;;;8.40;60.60;;;;;;5040359;28;20079;-71
2021/03/12 08:12:34;;;;;;;3.72;1.27;;;8.50;61.30;;;;;;5040213;28;20056;-71
2021/03/12 08:15:12;;;;;;;7.75;1.40;;;8.80;60.60;;;;;;5044350;28;20403;-72
2021/03/12 08:17:38;;;;;;;5.00;1.85;;;8.90;61.30;;;;;;5066012;28;20078;-71
2021/03/12 08:20:23;;;;;;;3.72;1.00;;;8.90;59.70;;;;;;5036145;28;20116;-72
2021/03/12 08:22:49;;;;;;;4.43;1.20;;;8.70;60.70;;;;;;5063513;28;20386;-71
2021/03/12 08:25:40;;;;;;;3.80;1.10;;;8.60;59.90;;;;;;5045501;28;20025;-72
2021/03/12 08:28:11;;;;;;;21.40;10.15;;;8.60;60.90;;;;;;5032776;28;20018;-72
2021/03/12 08:30:39;;;;;;;74.43;30.17;;;8.90;60.10;;;;;;5046281;28;20119;-70
2021/03/12 08:33:07;;;;;;;294.95;98.03;;;8.80;59.50;;;;;;5061114;28;20433;-71
2021/03/12 08:35:36;;;;;;;43.55;16.15;;;9.00;60.00;;;;;;5047466;28;20562;-71
2021/03/12 08:38:11;;;;;;;38.28;14.30;;;9.30;58.30;;;;;;5054282;28;20029;-71
2021/03/12 08:40:39;;;;;;;48.33;18.08;;;10.60;55.50;;;;;;5046933;28;20039;-71
2021/03/12 08:43:11;;;;;;;18.90;7.90;;;11.00;53.70;;;;;;5061666;28;20044;-71
2021/03/12 08:45:54;;;;;;;32.92;13.55;;;11.30;52.70;;;;;;5035239;28;20032;-71
2021/03/12 08:48:29;;;;;;;16.75;5.18;;;11.30;51.70;;;;;;5038807;28;20044;-73
2021/03/12 08:50:56;;;;;;;31.95;11.27;;;11.20;51.10;;;;;;5062469;28;20706;-72
2021/03/12 08:53:23;;;;;;;33.58;12.38;;;11.00;52.10;;;;;;5063687;28;20020;-71
2021/03/12 08:55:51;;;;;;;39.45;15.25;;;11.60;51.30;;;;;;5054520;28;20513;-72
2021/03/12 08:58:18;;;;;;;26.00;9.23;;;12.00;49.80;;;;;;5052437;28;20024;-68
2021/03/12 09:00:46;;;;;;;22.63;8.85;;;12.10;49.20;;;;;;5063353;28;20021;-73
2021/03/12 09:03:21;;;;;;;149.65;68.75;;;11.90;49.40;;;;;;5062185;28;20032;-71
2021/03/12 09:06:11;;;;;;;68.25;28.77;;;11.70;51.40;;;;;;5068447;28;20025;-72
2021/03/12 09:08:40;;;;;;;37.85;16.33;;;11.20;51.60;;;;;;5035401;28;20406;-71
2021/03/12 09:11:10;;;;;;;46.17;19.95;;;11.00;51.30;;;;;;5043200;28;20667;-71
2021/03/12 09:13:39;;;;;;;33.10;11.75;;;11.00;52.50;;;;;;5046609;28;20029;-70
2021/03/12 09:16:06;;;;;;;45.67;19.90;;;10.90;52.00;;;;;;5052338;28;20088;-70
2021/03/12 09:18:33;;;;;;;13.77;4.95;;;10.80;52.80;;;;;;5065140;28;20479;-72
2021/03/12 09:21:01;;;;;;;43.53;20.90;;;10.70;51.80;;;;;;5060024;28;20036;-75
2021/03/12 09:23:36;;;;;;;50.40;26.48;;;10.40;53.70;;;;;;5057525;28;20025;-69
2021/03/12 09:26:03;;;;;;;18.55;8.43;;;10.40;52.90;;;;;;5067536;28;20024;-68
2021/03/12 09:28:30;;;;;;;77.07;32.63;;;10.40;53.00;;;;;;5055740;28;20167;-72
2021/03/12 09:30:56;;;;;;;69.60;31.48;;;10.30;55.70;;;;;;5064698;28;20111;-73
2021/03/12 09:33:29;;;;;;;69.80;33.33;;;10.20;56.00;;;;;;5066811;28;20512;-72
2021/03/12 09:35:55;;;;;;;21.65;9.63;;;9.90;57.20;;;;;;5039618;28;20491;-73
2021/03/12 09:38:30;;;;;;;46.70;20.27;;;9.60;56.20;;;;;;5069863;28;20104;-69
2021/03/12 09:40:56;;;;;;;25.90;11.75;;;9.50;57.60;;;;;;5063223;28;20110;-70
2021/03/12 09:43:22;;;;;;;40.15;20.95;;;9.50;57.90;;;;;;5061385;28;20501;-71
2021/03/12 09:45:49;;;;;;;37.72;16.67;;;9.50;57.00;;;;;;5052799;28;20029;-71
2021/03/12 09:48:15;;;;;;;12.63;5.82;;;9.50;57.40;;;;;;5070363;28;20017;-70
2021/03/12 09:50:42;;;;;;;6.20;2.90;;;9.80;56.10;;;;;;5061147;28;20472;-71
2021/03/12 09:53:08;;;;;;;32.30;15.02;;;10.00;54.80;;;;;;5063647;28;20053;-71
2021/03/12 09:55:36;;;;;;;40.63;17.73;;;10.20;54.30;;;;;;5068207;28;20029;-70
2021/03/12 09:58:09;;;;;;;39.05;18.10;;;10.50;54.40;;;;;;5057223;28;20106;-72
2021/03/12 10:00:36;;;;;;;48.97;23.05;;;10.70;54.00;;;;;;5067798;28;20036;-72
2021/03/12 10:03:02;;;;;;;39.83;17.02;;;11.00;53.30;;;;;;5046408;28;20498;-72
2021/03/12 10:05:28;;;;;;;21.88;9.57;;;11.10;52.20;;;;;;5071658;28;20063;-74
2021/03/12 10:07:59;;;;;;;43.20;20.17;;;11.40;49.60;;;;;;5039412;28;20048;-75
2021/03/12 10:10:31;;;;;;;33.58;15.50;;;11.50;50.70;;;;;;5069419;28;20025;-71
2021/03/12 10:12:58;;;;;;;20.15;6.75;;;11.30;50.20;;;;;;5063381;28;20479;-73
2021/03/12 10:15:39;;;;;;;19.88;8.45;;;11.00;48.30;;;;;;5061125;28;20036;-72
2021/03/12 10:18:05;;;;;;;20.27;9.48;;;10.60;49.10;;;;;;5052062;28;20447;-73
2021/03/12 10:20:34;;;;;;;22.42;8.90;;;10.50;50.60;;;;;;5059150;28;20616;-73
2021/03/12 10:23:10;;;;;;;22.35;9.73;;;10.60;50.10;;;;;;5064908;28;20029;-73
2021/03/12 10:25:46;;;;;;;29.30;16.35;;;10.70;49.60;;;;;;5068322;28;20028;-74
2021/03/12 10:28:19;;;;;;;27.75;15.65;;;10.80;49.30;;;;;;5057139;28;20019;-73
2021/03/12 10:30:49;;;;;;;20.17;10.73;;;11.00;48.50;;;;;;5065573;28;20405;-74
2021/03/12 10:33:20;;;;;;;47.40;24.83;;;11.10;48.20;;;;;;5065546;28;20021;-75
2021/03/12 10:35:48;;;;;;;11.80;5.43;;;11.50;48.30;;;;;;5056608;28;20033;-72
2021/03/12 10:38:21;;;;;;;34.83;17.92;;;11.70;46.10;;;;;;5070276;28;20074;-72
2021/03/12 10:40:51;;;;;;;33.05;18.95;;;11.80;46.30;;;;;;5061088;28;20501;-71
2021/03/12 10:43:24;;;;;;;10.43;5.80;;;11.90;46.40;;;;;;5061418;28;20154;-73
2021/03/12 10:45:55;;;;;;;22.65;12.15;;;12.00;44.40;;;;;;5053583;28;20048;-72
2021/03/12 10:48:26;;;;;;;4.07;2.10;;;11.90;45.10;;;;;;5023312;28;20027;-72
2021/03/12 10:51:04;;;;;;;18.80;9.13;;;11.80;43.80;;;;;;5064893;28;20567;-73
2021/03/12 10:53:31;;;;;;;16.13;7.10;;;11.90;45.30;;;;;;5049085;28;20033;-73
2021/03/12 10:56:02;;;;;;;17.50;7.85;;;12.00;44.50;;;;;;5056108;28;20021;-71
2021/03/12 10:58:33;;;;;;;27.02;12.77;;;11.90;44.50;;;;;;5067784;28;20021;-73
2021/03/12 11:01:19;;;;;;;221.52;136.75;;;11.60;45.40;;;;;;5044555;28;20024;-72
2021/03/12 11:03:46;;;;;;;176.23;69.15;;;11.30;45.80;;;;;;5055838;28;20025;-73
2021/03/12 11:06:13;;;;;;;263.42;79.30;;;11.20;46.90;;;;;;5061547;28;20712;-72
2021/03/12 11:08:38;;;;;;;38.53;15.18;;;11.00;46.10;;;;;;5087972;28;20035;-73
2021/03/12 11:11:07;;;;;;;57.40;24.55;;;11.10;46.20;;;;;;5077914;28;20021;-73
2021/03/12 11:13:35;;;;;;;62.30;27.45;;;11.20;47.60;;;;;;5061004;28;20044;-72
2021/03/12 11:16:01;;;;;;;25.10;11.23;;;11.30;47.10;;;;;;5051418;28;20025;-73
2021/03/12 11:18:30;;;;;;;13.90;6.30;;;11.30;45.80;;;;;;5039715;28;20629;-73
2021/03/12 11:21:01;;;;;;;45.30;20.90;;;11.40;45.50;;;;;;5045729;28;20033;-73
2021/03/12 11:23:27;;;;;;;30.98;12.02;;;11.50;46.80;;;;;;5047991;28;20027;-74
2021/03/12 11:25:53;;;;;;;49.55;22.63;;;11.60;45.90;;;;;;5054363;28;20021;-73
2021/03/12 11:28:19;;;;;;;45.45;19.08;;;11.70;46.30;;;;;;5068300;28;20017;-73
2021/03/12 11:30:44;;;;;;;44.95;18.80;;;11.70;45.50;;;;;;5059581;28;20116;-72
2021/03/12 11:33:10;;;;;;;61.15;27.20;;;11.50;45.50;;;;;;5061327;28;20556;-72
2021/03/12 11:35:36;;;;;;;41.38;18.05;;;11.30;46.10;;;;;;5066797;28;20031;-72
2021/03/12 11:38:02;;;;;;;36.35;16.98;;;11.00;46.80;;;;;;5055380;28;20048;-71
2021/03/12 11:40:28;;;;;;;49.67;21.08;;;11.10;46.60;;;;;;5066965;28;20035;-72
2021/03/12 11:42:53;;;;;;;26.25;12.85;;;11.40;47.10;;;;;;5060694;28;20099;-74
2021/03/12 11:45:20;;;;;;;38.72;16.33;;;11.40;45.30;;;;;;5059365;28;20036;-72
2021/03/12 11:47:46;;;;;;;26.67;11.85;;;11.40;44.90;;;;;;5066136;28;20029;-73
2021/03/12 11:50:14;;;;;;;26.05;10.55;;;11.30;44.80;;;;;;5062166;28;20070;-73
2021/03/12 11:52:40;;;;;;;35.05;14.40;;;11.50;45.20;;;;;;5069998;28;20593;-75
2021/03/12 11:55:08;;;;;;;28.48;12.80;;;11.70;45.20;;;;;;5048961;28;20028;-73
2021/03/12 11:57:34;;;;;;;44.50;20.45;;;11.90;43.60;;;;;;5039749;28;20025;-74
2021/03/12 12:00:01;;;;;;;27.23;12.35;;;12.00;44.20;;;;;;5068242;28;20396;-73
2021/03/12 12:02:26;;;;;;;22.80;10.10;;;12.20;43.30;;;;;;5052070;28;20013;-74
2021/03/12 12:04:54;;;;;;;15.45;6.30;;;12.30;42.20;;;;;;5059338;28;20023;-75
2021/03/12 12:07:20;;;;;;;44.67;20.80;;;12.50;40.90;;;;;;5059108;28;20067;-73
2021/03/12 12:09:45;;;;;;;36.75;15.48;;;12.90;42.30;;;;;;5067831;28;20028;-74
2021/03/12 12:12:12;;;;;;;41.13;18.73;;;13.00;40.30;;;;;;5039773;28;20036;-72
2021/03/12 12:14:39;;;;;;;22.33;9.23;;;12.50;40.70;;;;;;5069646;28;20069;-75
2021/03/12 12:17:06;;;;;;;45.05;20.50;;;12.40;40.20;;;;;;5067082;28;20036;-75
2021/03/12 12:19:33;;;;;;;44.72;20.13;;;12.20;41.80;;;;;;5063590;28;20115;-74
2021/03/12 12:21:58;;;;;;;20.73;9.95;;;12.20;41.90;;;;;;5052623;28;20033;-73
2021/03/12 12:24:24;;;;;;;21.67;9.25;;;12.20;41.70;;;;;;5057576;28;20066;-74
2021/03/12 12:26:50;;;;;;;26.17;8.55;;;12.40;42.40;;;;;;5066225;28;20013;-73
2021/03/12 12:29:16;;;;;;;4.78;1.27;;;12.60;41.10;;;;;;5063410;28;20107;-73
2021/03/12 12:31:42;;;;;;;9.15;4.03;;;12.70;39.40;;;;;;5038294;28;20075;-74
2021/03/12 12:34:07;;;;;;;15.10;6.50;;;12.70;39.80;;;;;;5068464;28;20055;-74
2021/03/12 12:36:33;;;;;;;8.23;2.63;;;12.70;40.60;;;;;;5056972;28;20017;-74
2021/03/12 12:39:00;;;;;;;6.55;1.98;;;12.50;39.70;;;;;;5062378;28;20033;-71
2021/03/12 12:41:26;;;;;;;12.13;5.65;;;12.30;40.90;;;;;;5047664;28;20021;-73
2021/03/12 12:43:52;;;;;;;15.68;7.47;;;12.00;42.50;;;;;;5055832;28;20483;-73
2021/03/12 12:46:18;;;;;;;15.35;6.15;;;11.90;43.60;;;;;;5067674;28;20017;-73
2021/03/12 12:48:44;;;;;;;16.83;7.15;;;11.80;41.80;;;;;;5058736;28;20066;-74
2021/03/12 12:51:10;;;;;;;9.93;4.57;;;11.80;43.10;;;;;;5060477;28;20106;-71
2021/03/12 12:53:36;;;;;;;14.75;6.68;;;11.70;42.20;;;;;;5067552;28;20021;-74